Beaufort, SC

4:52 PM EST on December 06, 2016 (GMT -0500)
Downtown Marina Docks | | Change Station

Elev 0 ft 32.43 °N, 80.67 °W | Updated 8 seconds ago

Overcast
Overcast
74.1 °F
Feels Like 75 °F
N
7.3
Wind Variable Wind from SW

Today
High -- | Low -- °F
--% Chance of Precip.
Yesterday
High -- | Low -- °F
Precip. -- in
Pressure 29.69 in
Visibility 7.0 miles
Clouds Mostly Cloudy 3400 ft
Mostly Cloudy 4000 ft
Overcast 6500 ft
Heat Index 75 °F
Dew Point 67 °F
Humidity 78%
Rainfall 1.84 in
Snow Depth Not available.
7:10 AM 5:17 PM
Waxing Crescent, 45% visible
METAR KARW 062055Z AUTO 20003KT 7SM BKN034 BKN040 OVC065 22/21 A2969 RMK AO2 P0001
Pressure 29.69 in
Visibility 7.0 miles
Clouds Mostly Cloudy 3400 ft
Mostly Cloudy 4000 ft
Overcast 6500 ft
Heat Index 75 °F
Dew Point 67 °F
Humidity 78%
Rainfall 1.84 in
Snow Depth Not available.
7:10 AM 5:17 PM
Waxing Crescent, 45% visible
METAR KARW 062055Z AUTO 20003KT 7SM BKN034 BKN040 OVC065 22/21 A2969 RMK AO2 P0001

10-Day Weather Forecast

Almanac

Astronomy

Dec. 06, 2016 Rise Set
Actual Time
Civil Twilight
Nautical Twilight
Astronomical Twilight
Moon
Length of Visible Light
Length of Day
Tomorrow will be .
, % of the Moon is Illuminated

Today's Extremes

State Highs State Lows

Community

WunderPhotos

Upload Photos

1,956,033 photos uploaded!

WunderBlog® & News

Nearby

Air Quality

  Air Quality AQ Index Pollutant
Not available.

Snow Depth

Station Depth Elevation

Earthquake Activity

City Distance Mag. Time & Date
Minimum magnitude displayed is 2.5.

Coastal Water Temperatures

Place Temperature

Stations

Nearby Weather Stations

Station Location Temp. Windchill Dew Point Humidity Wind Precip. Elev Updated Type
                   

Watches & Warnings

There are currently no watches in effect.